»·PEaware :: SWA268 KRNO-KSAN

SWA268 :: KRNO-KSAN

FLIGHT INFORMATION

Flight Status: Arrived
Operator:
Southwest Airlines
More flights by this operator :: More flights under this callsign
Pilot: Ben F. (13029)
Aircraft: BOEING 737-800
(B738)
More flights by this aircraft type
Origin: KRNO Reno/Tahoe Intl
United States
Destination: KSAN San Diego Intl-Lindbergh
United States
More flights between these airports :: More routes between these airports
Route: +ZEFFR6 DARBI EHF HUULK COMIX2
File this flight plan on PilotEdge
Remarks: RMK / SIMBRIEF
Altitude:
(Current/Filed)
35,000ft
Speed:
(Current/Filed)
442kts
Departed: 16-Jan-20 07:45 PM
Arrived: 16-Jan-20 08:58 PM
Distance/Time
Traveled:
425nm/1:13
Distance/Time
To Go:
Arrived

Flight Plot

Page will automatically refresh every two minutes.

Flight plan parsing failed; only flown route is shown


Map Options




Map Legend


Flown Route
Filed Route
Departure Airport
Arrival Airport
Navaid (VOR, NDB)
Fix

Horizontal Profiles

Position Reports

Time Latitude Longitude Heading Altitude Ground
Speed
16-Jan-20 19:17 39.504442 -119.772792 355 4420ft 0kts
16-Jan-20 19:18 39.504442 -119.772792 355 4420ft 0kts
16-Jan-20 19:19 39.504442 -119.772792 355 4420ft 0kts
16-Jan-20 19:20 39.504442 -119.772792 355 4420ft 0kts
16-Jan-20 19:21 39.504442 -119.772792 355 4420ft 0kts
16-Jan-20 19:22 39.504442 -119.772792 355 4420ft 0kts
16-Jan-20 19:23 39.504442 -119.772792 355 4420ft 0kts
16-Jan-20 19:24 39.504442 -119.772792 355 4420ft 0kts
16-Jan-20 19:25 39.504442 -119.772792 355 4420ft 0kts
16-Jan-20 19:26 39.504442 -119.772792 355 4420ft 0kts
16-Jan-20 19:27 39.504442 -119.772792 355 4420ft 0kts
16-Jan-20 19:28 39.504442 -119.772792 355 4420ft 0kts
16-Jan-20 19:29 39.504442 -119.772792 355 4420ft 0kts
16-Jan-20 19:30 39.504442 -119.772792 355 4420ft 0kts
16-Jan-20 19:31 39.504442 -119.772792 355 4420ft 0kts
16-Jan-20 19:32 39.504442 -119.772792 355 4420ft 0kts
16-Jan-20 19:33 39.504442 -119.772792 355 4420ft 0kts
16-Jan-20 19:34 39.504442 -119.772792 355 4420ft 0kts
16-Jan-20 19:35 39.504441 -119.772792 355 4420ft 0kts
16-Jan-20 19:36 39.504441 -119.772792 355 4420ft 0kts
16-Jan-20 19:37 39.504220 -119.772769 355 4420ft 2kts
16-Jan-20 19:38 39.503726 -119.772885 85 4420ft 0kts
16-Jan-20 19:39 39.503728 -119.772983 89 4420ft 0kts
16-Jan-20 19:40 39.503728 -119.772983 89 4420ft 0kts
16-Jan-20 19:41 39.503732 -119.772422 90 4420ft 11kts
16-Jan-20 19:42 39.510536 -119.771495 0 4419ft 40kts
16-Jan-20 19:43 39.513730 -119.770594 84 4420ft 0kts
16-Jan-20 19:44 39.511074 -119.769238 180 4420ft 62kts
16-Jan-20 19:45 39.468942 -119.767579 180 6008ft 180kts
16-Jan-20 19:46 39.420896 -119.769176 187 8189ft 179kts
16-Jan-20 19:47 39.366399 -119.769211 185 9694ft 218kts
16-Jan-20 19:48 39.297953 -119.769272 184 11884ft 266kts
16-Jan-20 19:49 39.215429 -119.765856 183 13717ft 324kts
16-Jan-20 19:50 39.123416 -119.762313 183 16500ft 340kts
16-Jan-20 19:51 39.027183 -119.758689 183 19079ft 355kts
16-Jan-20 19:52 38.926245 -119.754907 184 21322ft 373kts
16-Jan-20 19:53 38.820287 -119.750934 185 23406ft 389kts
16-Jan-20 19:54 38.710259 -119.746826 186 25376ft 402kts
16-Jan-20 19:55 38.597140 -119.742610 186 27192ft 414kts
16-Jan-20 19:56 38.480300 -119.738272 186 28839ft 425kts
16-Jan-20 19:57 38.360484 -119.733841 187 30302ft 438kts
16-Jan-20 19:58 38.237677 -119.717505 178 31865ft 454kts
16-Jan-20 19:59 38.114030 -119.688313 179 33589ft 452kts
16-Jan-20 20:00 37.991091 -119.659756 179 35020ft 454kts
16-Jan-20 20:01 37.864149 -119.630310 179 35094ft 462kts
16-Jan-20 20:02 37.738531 -119.601316 179 35086ft 461kts
16-Jan-20 20:03 37.612139 -119.572206 179 35068ft 460kts
16-Jan-20 20:04 37.486044 -119.543310 179 35042ft 462kts
16-Jan-20 20:05 37.360214 -119.514529 179 35098ft 461kts
16-Jan-20 20:06 37.234151 -119.485808 179 35078ft 461kts
16-Jan-20 20:07 37.108373 -119.457242 179 35098ft 459kts
16-Jan-20 20:08 36.982203 -119.428720 182 35106ft 465kts
16-Jan-20 20:09 36.854084 -119.399808 183 35104ft 467kts
16-Jan-20 20:10 36.726212 -119.371104 183 35120ft 471kts
16-Jan-20 20:11 36.597335 -119.342172 184 35108ft 466kts
16-Jan-20 20:12 36.469934 -119.313773 184 35112ft 469kts
16-Jan-20 20:13 36.341858 -119.285259 184 35112ft 467kts
16-Jan-20 20:14 36.213714 -119.256844 184 35113ft 467kts
16-Jan-20 20:15 36.085752 -119.228573 184 35116ft 468kts
16-Jan-20 20:16 35.958060 -119.200446 184 35118ft 467kts
16-Jan-20 20:17 35.832026 -119.172761 184 35118ft 466kts
16-Jan-20 20:18 35.706339 -119.145264 184 35122ft 466kts
16-Jan-20 20:19 35.578757 -119.117452 184 35121ft 468kts
16-Jan-20 20:20 35.450573 -119.078293 169 35125ft 494kts
16-Jan-20 20:21 35.324388 -119.007773 168 35118ft 496kts
16-Jan-20 20:23 35.199798 -118.938460 168 35126ft 490kts
16-Jan-20 20:24 35.076155 -118.869888 168 35104ft 484kts
16-Jan-20 20:25 34.952820 -118.801758 166 35093ft 494kts
16-Jan-20 20:26 34.828840 -118.733423 164 35083ft 509kts
16-Jan-20 20:27 34.699965 -118.662597 164 35072ft 506kts
16-Jan-20 20:28 34.572497 -118.590304 158 35153ft 513kts
16-Jan-20 20:29 34.449157 -118.501951 157 35161ft 513kts
16-Jan-20 20:30 34.326030 -118.414442 157 35162ft 513kts
16-Jan-20 20:31 34.205501 -118.328921 157 35119ft 514kts
16-Jan-20 20:32 34.082587 -118.242027 157 35133ft 514kts
16-Jan-20 20:33 33.958284 -118.154515 158 35156ft 513kts
16-Jan-20 20:34 33.834419 -118.067685 159 35147ft 506kts
16-Jan-20 20:35 33.710150 -117.986035 160 34580ft 501kts
16-Jan-20 20:36 33.586749 -117.904602 159 33131ft 515kts
16-Jan-20 20:37 33.460755 -117.819543 158 31359ft 502kts
16-Jan-20 20:38 33.353499 -117.712583 145 27791ft 500kts
16-Jan-20 20:39 33.252309 -117.604510 145 23827ft 477kts
16-Jan-20 20:40 33.156262 -117.503420 146 19841ft 444kts
16-Jan-20 20:41 33.061978 -117.420722 151 15854ft 404kts
16-Jan-20 20:42 32.973761 -117.346882 149 11869ft 377kts
16-Jan-20 20:43 32.892187 -117.278665 149 8996ft 330kts
16-Jan-20 20:44 32.826986 -117.219423 126 7250ft 276kts
16-Jan-20 20:45 32.810393 -117.136241 101 6037ft 236kts
16-Jan-20 20:45 32.801963 -117.070648 101 5983ft 243kts
16-Jan-20 20:47 32.788130 -116.978236 101 5985ft 242kts
16-Jan-20 20:48 32.774516 -116.898625 101 5932ft 250kts
16-Jan-20 20:48 32.748984 -116.845918 162 5428ft 212kts
16-Jan-20 20:50 32.689610 -116.854644 240 4760ft 176kts
16-Jan-20 20:50 32.673792 -116.900342 251 4100ft 184kts
16-Jan-20 20:51 32.677099 -116.956351 283 3829ft 169kts
16-Jan-20 20:53 32.691989 -117.015831 288 3533ft 139kts
16-Jan-20 20:53 32.702113 -117.051058 284 2759ft 130kts
16-Jan-20 20:54 32.711947 -117.097624 282 2102ft 152kts
16-Jan-20 20:55 32.723018 -117.145138 283 962ft 141kts
16-Jan-20 20:56 32.733082 -117.187746 286 25ft 93kts
16-Jan-20 20:57 32.734093 -117.194841 203 25ft 3kts
16-Jan-20 20:58 32.733285 -117.195482 227 25ft 2kts
16-Jan-20 20:59 32.733144 -117.195664 227 25ft 0kts
16-Jan-20 21:00 32.733144 -117.195664 227 25ft 0kts
16-Jan-20 21:01 32.733144 -117.195664 227 25ft 0kts

Navigation Log

Ident Type
Flight plan parsing failed, navigation log unavailable